sensor_id;sensor_type;location;lat;lon;timestamp;P1;durP1;ratioP1;P2;durP2;ratioP2
21202;SDS011;10759;51.982;9.232;2024-03-08T00:00:13;29.55;;;26.50;;
21202;SDS011;10759;51.982;9.232;2024-03-08T00:02:45;31.60;;;27.48;;
21202;SDS011;10759;51.982;9.232;2024-03-08T00:05:14;29.58;;;26.63;;
21202;SDS011;10759;51.982;9.232;2024-03-08T00:07:42;31.45;;;28.23;;
21202;SDS011;10759;51.982;9.232;2024-03-08T00:10:12;30.27;;;27.13;;
21202;SDS011;10759;51.982;9.232;2024-03-08T00:12:42;31.35;;;27.25;;
21202;SDS011;10759;51.982;9.232;2024-03-08T00:15:12;32.10;;;28.75;;
21202;SDS011;10759;51.982;9.232;2024-03-08T00:17:43;29.98;;;26.80;;
21202;SDS011;10759;51.982;9.232;2024-03-08T00:20:12;30.60;;;27.40;;
21202;SDS011;10759;51.982;9.232;2024-03-08T00:22:41;30.27;;;27.08;;
21202;SDS011;10759;51.982;9.232;2024-03-08T00:25:11;31.58;;;28.35;;
21202;SDS011;10759;51.982;9.232;2024-03-08T00:27:39;31.43;;;28.27;;
21202;SDS011;10759;51.982;9.232;2024-03-08T00:30:08;31.52;;;28.33;;
21202;SDS011;10759;51.982;9.232;2024-03-08T00:32:37;30.77;;;27.60;;
21202;SDS011;10759;51.982;9.232;2024-03-08T00:35:05;30.38;;;27.15;;
21202;SDS011;10759;51.982;9.232;2024-03-08T00:37:34;29.63;;;26.63;;
21202;SDS011;10759;51.982;9.232;2024-03-08T00:40:03;28.45;;;25.67;;
21202;SDS011;10759;51.982;9.232;2024-03-08T00:42:35;30.90;;;27.83;;
21202;SDS011;10759;51.982;9.232;2024-03-08T00:45:05;30.98;;;27.75;;
21202;SDS011;10759;51.982;9.232;2024-03-08T00:47:33;29.90;;;26.75;;
21202;SDS011;10759;51.982;9.232;2024-03-08T00:50:01;30.80;;;27.52;;
21202;SDS011;10759;51.982;9.232;2024-03-08T00:52:31;30.02;;;26.85;;
21202;SDS011;10759;51.982;9.232;2024-03-08T00:57:29;28.85;;;25.90;;
21202;SDS011;10759;51.982;9.232;2024-03-08T00:59:58;30.38;;;27.38;;
21202;SDS011;10759;51.982;9.232;2024-03-08T01:04:56;29.15;;;26.25;;
21202;SDS011;10759;51.982;9.232;2024-03-08T01:07:24;30.92;;;27.85;;
21202;SDS011;10759;51.982;9.232;2024-03-08T01:09:52;30.23;;;26.63;;
21202;SDS011;10759;51.982;9.232;2024-03-08T01:12:20;31.35;;;27.90;;
21202;SDS011;10759;51.982;9.232;2024-03-08T01:14:48;31.75;;;28.05;;
21202;SDS011;10759;51.982;9.232;2024-03-08T01:17:17;31.67;;;28.10;;
21202;SDS011;10759;51.982;9.232;2024-03-08T01:19:46;32.75;;;28.40;;
21202;SDS011;10759;51.982;9.232;2024-03-08T01:22:14;29.63;;;26.58;;
21202;SDS011;10759;51.982;9.232;2024-03-08T01:24:42;33.53;;;28.08;;
21202;SDS011;10759;51.982;9.232;2024-03-08T01:27:10;29.98;;;26.90;;
21202;SDS011;10759;51.982;9.232;2024-03-08T01:29:39;32.05;;;28.65;;
21202;SDS011;10759;51.982;9.232;2024-03-08T01:32:07;32.40;;;28.38;;
21202;SDS011;10759;51.982;9.232;2024-03-08T01:34:36;32.45;;;28.95;;
21202;SDS011;10759;51.982;9.232;2024-03-08T01:37:04;33.08;;;28.23;;
21202;SDS011;10759;51.982;9.232;2024-03-08T01:39:33;32.25;;;27.92;;
21202;SDS011;10759;51.982;9.232;2024-03-08T01:42:01;31.15;;;27.23;;
21202;SDS011;10759;51.982;9.232;2024-03-08T01:44:29;31.80;;;27.92;;
21202;SDS011;10759;51.982;9.232;2024-03-08T01:46:58;30.30;;;26.98;;
21202;SDS011;10759;51.982;9.232;2024-03-08T01:49:26;33.92;;;28.88;;
21202;SDS011;10759;51.982;9.232;2024-03-08T01:51:56;30.40;;;27.27;;
21202;SDS011;10759;51.982;9.232;2024-03-08T01:54:25;27.50;;;24.63;;
21202;SDS011;10759;51.982;9.232;2024-03-08T01:56:54;33.83;;;30.17;;
21202;SDS011;10759;51.982;9.232;2024-03-08T01:59:22;34.20;;;30.70;;
21202;SDS011;10759;51.982;9.232;2024-03-08T02:01:50;38.55;;;32.20;;
21202;SDS011;10759;51.982;9.232;2024-03-08T02:04:19;34.08;;;29.83;;
21202;SDS011;10759;51.982;9.232;2024-03-08T02:06:48;33.92;;;30.05;;
21202;SDS011;10759;51.982;9.232;2024-03-08T02:09:17;33.00;;;29.55;;
21202;SDS011;10759;51.982;9.232;2024-03-08T02:11:45;31.52;;;28.15;;
21202;SDS011;10759;51.982;9.232;2024-03-08T02:14:14;32.38;;;29.02;;
21202;SDS011;10759;51.982;9.232;2024-03-08T02:16:42;34.40;;;29.63;;
21202;SDS011;10759;51.982;9.232;2024-03-08T02:19:10;32.58;;;29.08;;
21202;SDS011;10759;51.982;9.232;2024-03-08T02:21:39;32.00;;;28.60;;
21202;SDS011;10759;51.982;9.232;2024-03-08T02:24:07;32.08;;;28.58;;
21202;SDS011;10759;51.982;9.232;2024-03-08T02:26:35;32.53;;;29.08;;
21202;SDS011;10759;51.982;9.232;2024-03-08T02:29:04;33.45;;;29.20;;
21202;SDS011;10759;51.982;9.232;2024-03-08T02:31:32;31.67;;;28.00;;
21202;SDS011;10759;51.982;9.232;2024-03-08T02:34:00;30.83;;;27.58;;
21202;SDS011;10759;51.982;9.232;2024-03-08T02:36:28;32.03;;;28.67;;
21202;SDS011;10759;51.982;9.232;2024-03-08T02:38:57;33.88;;;29.65;;
21202;SDS011;10759;51.982;9.232;2024-03-08T02:41:25;34.22;;;29.95;;
21202;SDS011;10759;51.982;9.232;2024-03-08T02:43:53;32.00;;;28.50;;
21202;SDS011;10759;51.982;9.232;2024-03-08T02:46:21;33.40;;;29.85;;
21202;SDS011;10759;51.982;9.232;2024-03-08T02:48:49;33.22;;;29.65;;
21202;SDS011;10759;51.982;9.232;2024-03-08T02:51:18;37.33;;;29.95;;
21202;SDS011;10759;51.982;9.232;2024-03-08T02:53:46;36.10;;;29.73;;
21202;SDS011;10759;51.982;9.232;2024-03-08T02:56:19;32.30;;;28.85;;
21202;SDS011;10759;51.982;9.232;2024-03-08T02:58:48;31.80;;;28.52;;
21202;SDS011;10759;51.982;9.232;2024-03-08T03:01:16;32.17;;;28.67;;
21202;SDS011;10759;51.982;9.232;2024-03-08T03:03:46;33.13;;;29.52;;
21202;SDS011;10759;51.982;9.232;2024-03-08T03:06:14;32.03;;;28.73;;
21202;SDS011;10759;51.982;9.232;2024-03-08T03:08:43;31.75;;;28.30;;
21202;SDS011;10759;51.982;9.232;2024-03-08T03:11:12;31.90;;;28.63;;
21202;SDS011;10759;51.982;9.232;2024-03-08T03:13:42;34.20;;;29.13;;
21202;SDS011;10759;51.982;9.232;2024-03-08T03:16:18;33.42;;;29.92;;
21202;SDS011;10759;51.982;9.232;2024-03-08T03:18:47;33.67;;;29.95;;
21202;SDS011;10759;51.982;9.232;2024-03-08T03:21:15;30.73;;;27.42;;
21202;SDS011;10759;51.982;9.232;2024-03-08T03:23:44;33.10;;;29.52;;
21202;SDS011;10759;51.982;9.232;2024-03-08T03:26:12;33.40;;;29.33;;
21202;SDS011;10759;51.982;9.232;2024-03-08T03:28:45;34.08;;;29.90;;
21202;SDS011;10759;51.982;9.232;2024-03-08T03:31:13;33.88;;;30.27;;
21202;SDS011;10759;51.982;9.232;2024-03-08T03:33:41;31.70;;;28.30;;
21202;SDS011;10759;51.982;9.232;2024-03-08T03:36:10;35.17;;;30.88;;
21202;SDS011;10759;51.982;9.232;2024-03-08T03:38:38;31.52;;;28.10;;
21202;SDS011;10759;51.982;9.232;2024-03-08T03:41:06;32.40;;;28.95;;
21202;SDS011;10759;51.982;9.232;2024-03-08T03:43:37;30.85;;;27.70;;
21202;SDS011;10759;51.982;9.232;2024-03-08T03:46:07;35.28;;;29.70;;
21202;SDS011;10759;51.982;9.232;2024-03-08T03:48:37;32.60;;;28.73;;
21202;SDS011;10759;51.982;9.232;2024-03-08T03:51:06;32.50;;;29.02;;
21202;SDS011;10759;51.982;9.232;2024-03-08T03:53:34;33.35;;;28.98;;
21202;SDS011;10759;51.982;9.232;2024-03-08T03:56:03;32.10;;;27.65;;
21202;SDS011;10759;51.982;9.232;2024-03-08T03:58:33;35.42;;;29.13;;
21202;SDS011;10759;51.982;9.232;2024-03-08T04:01:01;35.95;;;29.77;;
21202;SDS011;10759;51.982;9.232;2024-03-08T04:03:33;32.83;;;29.15;;
21202;SDS011;10759;51.982;9.232;2024-03-08T04:06:01;34.22;;;30.55;;
21202;SDS011;10759;51.982;9.232;2024-03-08T04:08:29;33.67;;;30.05;;
21202;SDS011;10759;51.982;9.232;2024-03-08T04:10:57;34.05;;;29.73;;
21202;SDS011;10759;51.982;9.232;2024-03-08T04:13:26;34.00;;;30.33;;
21202;SDS011;10759;51.982;9.232;2024-03-08T04:15:54;30.50;;;27.25;;
21202;SDS011;10759;51.982;9.232;2024-03-08T04:18:22;34.92;;;30.42;;
21202;SDS011;10759;51.982;9.232;2024-03-08T04:20:51;34.58;;;30.88;;
21202;SDS011;10759;51.982;9.232;2024-03-08T04:23:19;32.15;;;28.48;;
21202;SDS011;10759;51.982;9.232;2024-03-08T04:25:47;32.72;;;29.27;;
21202;SDS011;10759;51.982;9.232;2024-03-08T04:28:15;34.50;;;30.65;;
21202;SDS011;10759;51.982;9.232;2024-03-08T04:30:43;36.60;;;32.33;;
21202;SDS011;10759;51.982;9.232;2024-03-08T04:33:12;34.30;;;30.60;;
21202;SDS011;10759;51.982;9.232;2024-03-08T04:35:41;34.22;;;30.73;;
21202;SDS011;10759;51.982;9.232;2024-03-08T04:38:14;34.25;;;30.42;;
21202;SDS011;10759;51.982;9.232;2024-03-08T04:40:42;35.83;;;30.48;;
21202;SDS011;10759;51.982;9.232;2024-03-08T04:43:10;32.83;;;29.50;;
21202;SDS011;10759;51.982;9.232;2024-03-08T04:45:38;34.28;;;30.50;;
21202;SDS011;10759;51.982;9.232;2024-03-08T04:48:07;34.47;;;30.80;;
21202;SDS011;10759;51.982;9.232;2024-03-08T04:50:36;36.67;;;29.80;;
21202;SDS011;10759;51.982;9.232;2024-03-08T04:53:04;40.08;;;30.48;;
21202;SDS011;10759;51.982;9.232;2024-03-08T04:55:36;38.00;;;30.90;;
21202;SDS011;10759;51.982;9.232;2024-03-08T04:58:04;36.13;;;32.20;;
21202;SDS011;10759;51.982;9.232;2024-03-08T05:00:33;34.53;;;30.55;;
21202;SDS011;10759;51.982;9.232;2024-03-08T05:03:01;38.67;;;31.90;;
21202;SDS011;10759;51.982;9.232;2024-03-08T05:05:31;39.38;;;33.08;;
21202;SDS011;10759;51.982;9.232;2024-03-08T05:07:59;36.38;;;32.47;;
21202;SDS011;10759;51.982;9.232;2024-03-08T05:10:29;40.25;;;32.40;;
21202;SDS011;10759;51.982;9.232;2024-03-08T05:12:58;37.05;;;33.03;;
21202;SDS011;10759;51.982;9.232;2024-03-08T05:15:26;38.05;;;33.63;;
21202;SDS011;10759;51.982;9.232;2024-03-08T05:17:54;42.55;;;33.97;;
21202;SDS011;10759;51.982;9.232;2024-03-08T05:20:24;39.33;;;32.22;;
21202;SDS011;10759;51.982;9.232;2024-03-08T05:22:52;39.25;;;35.15;;
21202;SDS011;10759;51.982;9.232;2024-03-08T05:25:20;42.25;;;34.97;;
21202;SDS011;10759;51.982;9.232;2024-03-08T05:27:48;40.42;;;33.70;;
21202;SDS011;10759;51.982;9.232;2024-03-08T05:30:18;40.83;;;34.95;;
21202;SDS011;10759;51.982;9.232;2024-03-08T05:32:48;39.05;;;34.85;;
21202;SDS011;10759;51.982;9.232;2024-03-08T05:35:16;36.92;;;32.97;;
21202;SDS011;10759;51.982;9.232;2024-03-08T05:37:44;39.63;;;33.80;;
21202;SDS011;10759;51.982;9.232;2024-03-08T05:40:12;41.45;;;33.60;;
21202;SDS011;10759;51.982;9.232;2024-03-08T05:42:44;37.40;;;33.33;;
21202;SDS011;10759;51.982;9.232;2024-03-08T05:45:13;38.70;;;32.92;;
21202;SDS011;10759;51.982;9.232;2024-03-08T05:47:43;39.40;;;32.55;;
21202;SDS011;10759;51.982;9.232;2024-03-08T05:50:12;39.08;;;33.88;;
21202;SDS011;10759;51.982;9.232;2024-03-08T05:52:42;41.33;;;33.95;;
21202;SDS011;10759;51.982;9.232;2024-03-08T05:55:10;43.53;;;34.95;;
21202;SDS011;10759;51.982;9.232;2024-03-08T06:00:09;43.53;;;35.42;;
21202;SDS011;10759;51.982;9.232;2024-03-08T06:02:38;41.50;;;35.42;;
21202;SDS011;10759;51.982;9.232;2024-03-08T06:05:10;40.33;;;35.38;;
21202;SDS011;10759;51.982;9.232;2024-03-08T06:07:38;43.17;;;35.15;;
21202;SDS011;10759;51.982;9.232;2024-03-08T06:10:08;42.03;;;36.03;;
21202;SDS011;10759;51.982;9.232;2024-03-08T06:12:40;45.33;;;36.75;;
21202;SDS011;10759;51.982;9.232;2024-03-08T06:15:09;44.88;;;35.92;;
21202;SDS011;10759;51.982;9.232;2024-03-08T06:17:41;43.60;;;35.33;;
21202;SDS011;10759;51.982;9.232;2024-03-08T06:20:11;39.75;;;34.53;;
21202;SDS011;10759;51.982;9.232;2024-03-08T06:22:40;45.75;;;36.17;;
21202;SDS011;10759;51.982;9.232;2024-03-08T06:25:08;41.53;;;36.03;;
21202;SDS011;10759;51.982;9.232;2024-03-08T06:27:37;44.58;;;37.00;;
21202;SDS011;10759;51.982;9.232;2024-03-08T06:30:06;44.50;;;37.72;;
21202;SDS011;10759;51.982;9.232;2024-03-08T06:32:36;44.13;;;37.00;;
21202;SDS011;10759;51.982;9.232;2024-03-08T06:35:05;40.78;;;35.83;;
21202;SDS011;10759;51.982;9.232;2024-03-08T06:37:35;45.33;;;36.90;;
21202;SDS011;10759;51.982;9.232;2024-03-08T06:40:04;42.42;;;37.83;;
21202;SDS011;10759;51.982;9.232;2024-03-08T06:42:34;41.80;;;37.00;;
21202;SDS011;10759;51.982;9.232;2024-03-08T06:45:02;41.20;;;36.78;;
21202;SDS011;10759;51.982;9.232;2024-03-08T06:47:32;46.72;;;37.22;;
21202;SDS011;10759;51.982;9.232;2024-03-08T06:50:01;42.92;;;37.20;;
21202;SDS011;10759;51.982;9.232;2024-03-08T06:52:29;46.63;;;37.80;;
21202;SDS011;10759;51.982;9.232;2024-03-08T06:54:58;43.78;;;35.70;;
21202;SDS011;10759;51.982;9.232;2024-03-08T06:57:28;42.20;;;36.25;;
21202;SDS011;10759;51.982;9.232;2024-03-08T06:59:57;42.95;;;37.78;;
21202;SDS011;10759;51.982;9.232;2024-03-08T07:02:25;40.83;;;36.13;;
21202;SDS011;10759;51.982;9.232;2024-03-08T07:04:53;42.97;;;35.75;;
21202;SDS011;10759;51.982;9.232;2024-03-08T07:07:21;40.65;;;36.35;;
21202;SDS011;10759;51.982;9.232;2024-03-08T07:09:49;43.58;;;37.85;;
21202;SDS011;10759;51.982;9.232;2024-03-08T07:12:18;39.42;;;35.22;;
21202;SDS011;10759;51.982;9.232;2024-03-08T07:14:47;40.05;;;34.83;;
21202;SDS011;10759;51.982;9.232;2024-03-08T07:17:15;41.72;;;36.40;;
21202;SDS011;10759;51.982;9.232;2024-03-08T07:19:44;40.70;;;36.13;;
21202;SDS011;10759;51.982;9.232;2024-03-08T07:22:15;41.97;;;36.40;;
21202;SDS011;10759;51.982;9.232;2024-03-08T07:24:43;38.75;;;34.50;;
21202;SDS011;10759;51.982;9.232;2024-03-08T07:27:32;42.40;;;35.75;;
21202;SDS011;10759;51.982;9.232;2024-03-08T07:30:00;42.15;;;35.88;;
21202;SDS011;10759;51.982;9.232;2024-03-08T07:32:31;41.83;;;34.70;;
21202;SDS011;10759;51.982;9.232;2024-03-08T07:35:00;39.83;;;34.70;;
21202;SDS011;10759;51.982;9.232;2024-03-08T07:37:28;41.92;;;35.00;;
21202;SDS011;10759;51.982;9.232;2024-03-08T07:39:56;39.53;;;35.28;;
21202;SDS011;10759;51.982;9.232;2024-03-08T07:42:25;41.78;;;36.30;;
21202;SDS011;10759;51.982;9.232;2024-03-08T07:44:56;43.25;;;35.78;;
21202;SDS011;10759;51.982;9.232;2024-03-08T07:47:24;44.53;;;36.23;;
21202;SDS011;10759;51.982;9.232;2024-03-08T07:49:53;40.78;;;35.03;;
21202;SDS011;10759;51.982;9.232;2024-03-08T07:52:21;49.70;;;36.97;;
21202;SDS011;10759;51.982;9.232;2024-03-08T07:54:50;44.10;;;35.22;;
21202;SDS011;10759;51.982;9.232;2024-03-08T07:57:18;44.45;;;35.25;;
21202;SDS011;10759;51.982;9.232;2024-03-08T07:59:47;39.50;;;34.75;;
21202;SDS011;10759;51.982;9.232;2024-03-08T08:02:17;39.95;;;35.65;;
21202;SDS011;10759;51.982;9.232;2024-03-08T08:04:45;42.40;;;35.92;;
21202;SDS011;10759;51.982;9.232;2024-03-08T08:07:13;37.40;;;33.35;;
21202;SDS011;10759;51.982;9.232;2024-03-08T08:09:41;36.60;;;32.63;;
21202;SDS011;10759;51.982;9.232;2024-03-08T08:12:09;41.83;;;33.30;;
21202;SDS011;10759;51.982;9.232;2024-03-08T08:14:38;39.80;;;35.50;;
21202;SDS011;10759;51.982;9.232;2024-03-08T08:17:07;40.77;;;35.83;;
21202;SDS011;10759;51.982;9.232;2024-03-08T08:19:37;41.08;;;35.22;;
21202;SDS011;10759;51.982;9.232;2024-03-08T08:24:35;39.95;;;35.00;;
21202;SDS011;10759;51.982;9.232;2024-03-08T08:27:04;40.55;;;35.08;;
21202;SDS011;10759;51.982;9.232;2024-03-08T08:29:33;38.67;;;34.53;;
21202;SDS011;10759;51.982;9.232;2024-03-08T08:32:02;41.65;;;36.30;;
21202;SDS011;10759;51.982;9.232;2024-03-08T08:34:30;40.35;;;35.08;;
21202;SDS011;10759;51.982;9.232;2024-03-08T08:36:59;41.03;;;34.92;;
21202;SDS011;10759;51.982;9.232;2024-03-08T08:39:27;41.20;;;36.33;;
21202;SDS011;10759;51.982;9.232;2024-03-08T08:41:55;40.03;;;35.45;;
21202;SDS011;10759;51.982;9.232;2024-03-08T08:44:24;42.80;;;37.00;;
21202;SDS011;10759;51.982;9.232;2024-03-08T08:46:52;43.70;;;36.65;;
21202;SDS011;10759;51.982;9.232;2024-03-08T08:49:31;43.25;;;34.60;;
21202;SDS011;10759;51.982;9.232;2024-03-08T08:52:00;42.70;;;37.00;;
21202;SDS011;10759;51.982;9.232;2024-03-08T08:54:41;40.92;;;36.42;;
21202;SDS011;10759;51.982;9.232;2024-03-08T08:57:13;45.63;;;37.03;;
21202;SDS011;10759;51.982;9.232;2024-03-08T08:59:43;42.50;;;37.45;;
21202;SDS011;10759;51.982;9.232;2024-03-08T09:02:12;42.50;;;36.63;;
21202;SDS011;10759;51.982;9.232;2024-03-08T09:04:44;46.53;;;37.53;;
21202;SDS011;10759;51.982;9.232;2024-03-08T09:07:13;38.80;;;34.58;;
21202;SDS011;10759;51.982;9.232;2024-03-08T09:09:42;39.38;;;34.63;;
21202;SDS011;10759;51.982;9.232;2024-03-08T09:12:10;40.60;;;33.03;;
21202;SDS011;10759;51.982;9.232;2024-03-08T09:14:39;41.15;;;33.88;;
21202;SDS011;10759;51.982;9.232;2024-03-08T09:17:07;40.92;;;35.33;;
21202;SDS011;10759;51.982;9.232;2024-03-08T09:19:36;38.42;;;32.45;;
21202;SDS011;10759;51.982;9.232;2024-03-08T09:22:04;44.30;;;34.40;;
21202;SDS011;10759;51.982;9.232;2024-03-08T09:24:33;44.05;;;33.28;;
21202;SDS011;10759;51.982;9.232;2024-03-08T09:27:01;38.80;;;34.27;;
21202;SDS011;10759;51.982;9.232;2024-03-08T09:29:29;40.72;;;35.80;;
21202;SDS011;10759;51.982;9.232;2024-03-08T09:31:57;44.17;;;32.75;;
21202;SDS011;10759;51.982;9.232;2024-03-08T09:34:25;39.08;;;32.58;;
21202;SDS011;10759;51.982;9.232;2024-03-08T09:37:02;37.90;;;32.75;;
21202;SDS011;10759;51.982;9.232;2024-03-08T09:39:31;40.03;;;32.90;;
21202;SDS011;10759;51.982;9.232;2024-03-08T09:42:01;36.83;;;31.85;;
21202;SDS011;10759;51.982;9.232;2024-03-08T09:44:30;38.75;;;31.92;;
21202;SDS011;10759;51.982;9.232;2024-03-08T09:46:58;42.03;;;33.53;;
21202;SDS011;10759;51.982;9.232;2024-03-08T09:49:28;37.50;;;31.63;;
21202;SDS011;10759;51.982;9.232;2024-03-08T09:51:56;41.30;;;31.00;;
21202;SDS011;10759;51.982;9.232;2024-03-08T09:54:25;42.05;;;31.15;;
21202;SDS011;10759;51.982;9.232;2024-03-08T09:56:54;35.20;;;29.97;;
21202;SDS011;10759;51.982;9.232;2024-03-08T09:59:23;37.00;;;31.05;;
21202;SDS011;10759;51.982;9.232;2024-03-08T10:02:09;40.28;;;30.52;;
21202;SDS011;10759;51.982;9.232;2024-03-08T10:04:42;34.50;;;30.30;;
21202;SDS011;10759;51.982;9.232;2024-03-08T10:07:13;36.50;;;30.73;;
21202;SDS011;10759;51.982;9.232;2024-03-08T10:09:41;36.58;;;29.45;;
21202;SDS011;10759;51.982;9.232;2024-03-08T10:12:16;34.35;;;29.90;;
21202;SDS011;10759;51.982;9.232;2024-03-08T10:14:47;33.80;;;29.98;;
21202;SDS011;10759;51.982;9.232;2024-03-08T10:17:15;29.03;;;24.27;;
21202;SDS011;10759;51.982;9.232;2024-03-08T10:19:50;37.88;;;29.90;;
21202;SDS011;10759;51.982;9.232;2024-03-08T10:22:19;32.80;;;27.73;;
21202;SDS011;10759;51.982;9.232;2024-03-08T10:24:47;31.58;;;27.88;;
21202;SDS011;10759;51.982;9.232;2024-03-08T10:27:16;32.30;;;26.77;;
21202;SDS011;10759;51.982;9.232;2024-03-08T10:29:47;31.80;;;26.40;;
21202;SDS011;10759;51.982;9.232;2024-03-08T10:32:18;32.72;;;27.60;;
21202;SDS011;10759;51.982;9.232;2024-03-08T10:34:47;29.60;;;26.40;;
21202;SDS011;10759;51.982;9.232;2024-03-08T10:37:16;29.83;;;26.33;;
21202;SDS011;10759;51.982;9.232;2024-03-08T10:39:53;34.60;;;27.73;;
21202;SDS011;10759;51.982;9.232;2024-03-08T10:42:39;30.08;;;26.88;;
21202;SDS011;10759;51.982;9.232;2024-03-08T10:45:11;30.45;;;26.73;;
21202;SDS011;10759;51.982;9.232;2024-03-08T10:47:43;31.15;;;26.38;;
21202;SDS011;10759;51.982;9.232;2024-03-08T10:50:17;34.17;;;27.25;;
21202;SDS011;10759;51.982;9.232;2024-03-08T10:52:48;26.52;;;23.52;;
21202;SDS011;10759;51.982;9.232;2024-03-08T10:55:17;29.23;;;26.07;;
21202;SDS011;10759;51.982;9.232;2024-03-08T10:57:47;22.27;;;19.70;;
21202;SDS011;10759;51.982;9.232;2024-03-08T11:00:18;28.95;;;24.05;;
21202;SDS011;10759;51.982;9.232;2024-03-08T11:02:53;28.15;;;24.52;;
21202;SDS011;10759;51.982;9.232;2024-03-08T11:05:31;30.45;;;26.25;;
21202;SDS011;10759;51.982;9.232;2024-03-08T11:08:02;30.65;;;27.35;;
21202;SDS011;10759;51.982;9.232;2024-03-08T11:10:31;29.05;;;26.08;;
21202;SDS011;10759;51.982;9.232;2024-03-08T11:12:59;32.05;;;28.17;;
21202;SDS011;10759;51.982;9.232;2024-03-08T11:15:29;30.92;;;27.25;;
21202;SDS011;10759;51.982;9.232;2024-03-08T11:17:58;31.35;;;28.05;;
21202;SDS011;10759;51.982;9.232;2024-03-08T11:20:28;30.65;;;27.42;;
21202;SDS011;10759;51.982;9.232;2024-03-08T11:25:35;31.05;;;26.65;;
21202;SDS011;10759;51.982;9.232;2024-03-08T11:28:08;32.60;;;27.20;;
21202;SDS011;10759;51.982;9.232;2024-03-08T11:30:45;31.92;;;28.48;;
21202;SDS011;10759;51.982;9.232;2024-03-08T11:33:14;30.65;;;26.98;;
21202;SDS011;10759;51.982;9.232;2024-03-08T11:35:43;33.80;;;28.13;;
21202;SDS011;10759;51.982;9.232;2024-03-08T11:38:12;34.30;;;27.70;;
21202;SDS011;10759;51.982;9.232;2024-03-08T11:40:43;34.28;;;28.73;;
21202;SDS011;10759;51.982;9.232;2024-03-08T11:43:16;35.80;;;30.85;;
21202;SDS011;10759;51.982;9.232;2024-03-08T11:45:46;36.97;;;29.85;;
21202;SDS011;10759;51.982;9.232;2024-03-08T11:48:14;32.97;;;29.60;;
21202;SDS011;10759;51.982;9.232;2024-03-08T11:50:42;33.90;;;30.17;;
21202;SDS011;10759;51.982;9.232;2024-03-08T11:53:10;36.13;;;30.38;;
21202;SDS011;10759;51.982;9.232;2024-03-08T11:55:40;34.67;;;29.05;;
21202;SDS011;10759;51.982;9.232;2024-03-08T11:58:09;32.17;;;28.77;;
21202;SDS011;10759;51.982;9.232;2024-03-08T12:00:39;35.72;;;30.35;;
21202;SDS011;10759;51.982;9.232;2024-03-08T12:03:09;31.70;;;28.38;;
21202;SDS011;10759;51.982;9.232;2024-03-08T12:05:37;32.75;;;29.40;;
21202;SDS011;10759;51.982;9.232;2024-03-08T12:08:05;34.10;;;30.30;;
21202;SDS011;10759;51.982;9.232;2024-03-08T12:10:39;33.22;;;29.63;;
21202;SDS011;10759;51.982;9.232;2024-03-08T12:13:08;33.20;;;29.23;;
21202;SDS011;10759;51.982;9.232;2024-03-08T12:15:40;31.95;;;28.63;;
21202;SDS011;10759;51.982;9.232;2024-03-08T12:18:11;32.33;;;28.17;;
21202;SDS011;10759;51.982;9.232;2024-03-08T12:20:39;33.30;;;29.77;;
21202;SDS011;10759;51.982;9.232;2024-03-08T12:23:13;32.75;;;28.80;;
21202;SDS011;10759;51.982;9.232;2024-03-08T12:25:43;33.05;;;28.95;;
21202;SDS011;10759;51.982;9.232;2024-03-08T12:28:12;29.98;;;26.80;;
21202;SDS011;10759;51.982;9.232;2024-03-08T12:30:45;35.45;;;29.25;;
21202;SDS011;10759;51.982;9.232;2024-03-08T12:33:16;31.77;;;28.38;;
21202;SDS011;10759;51.982;9.232;2024-03-08T12:35:50;35.15;;;27.73;;
21202;SDS011;10759;51.982;9.232;2024-03-08T12:38:22;29.77;;;26.60;;
21202;SDS011;10759;51.982;9.232;2024-03-08T12:40:54;30.27;;;27.27;;
21202;SDS011;10759;51.982;9.232;2024-03-08T12:43:24;30.88;;;27.52;;
21202;SDS011;10759;51.982;9.232;2024-03-08T12:45:52;30.65;;;27.55;;
21202;SDS011;10759;51.982;9.232;2024-03-08T12:48:22;32.13;;;27.77;;
21202;SDS011;10759;51.982;9.232;2024-03-08T12:50:51;32.50;;;29.08;;
21202;SDS011;10759;51.982;9.232;2024-03-08T12:53:21;31.90;;;28.50;;
21202;SDS011;10759;51.982;9.232;2024-03-08T12:55:52;31.73;;;27.98;;
21202;SDS011;10759;51.982;9.232;2024-03-08T12:58:22;32.40;;;28.77;;
21202;SDS011;10759;51.982;9.232;2024-03-08T13:00:52;32.00;;;28.60;;
21202;SDS011;10759;51.982;9.232;2024-03-08T13:03:20;31.38;;;28.13;;
21202;SDS011;10759;51.982;9.232;2024-03-08T13:05:51;33.65;;;30.23;;
21202;SDS011;10759;51.982;9.232;2024-03-08T13:08:19;30.40;;;26.73;;
21202;SDS011;10759;51.982;9.232;2024-03-08T13:10:48;32.30;;;28.33;;
21202;SDS011;10759;51.982;9.232;2024-03-08T13:13:17;30.50;;;27.05;;
21202;SDS011;10759;51.982;9.232;2024-03-08T13:15:46;35.05;;;29.10;;
21202;SDS011;10759;51.982;9.232;2024-03-08T13:18:15;31.15;;;26.70;;
21202;SDS011;10759;51.982;9.232;2024-03-08T13:20:44;33.75;;;27.80;;
21202;SDS011;10759;51.982;9.232;2024-03-08T13:23:17;31.60;;;27.85;;
21202;SDS011;10759;51.982;9.232;2024-03-08T13:25:45;32.27;;;29.07;;
21202;SDS011;10759;51.982;9.232;2024-03-08T13:28:14;29.80;;;26.65;;
21202;SDS011;10759;51.982;9.232;2024-03-08T13:30:43;30.48;;;27.27;;
21202;SDS011;10759;51.982;9.232;2024-03-08T13:33:12;27.52;;;24.60;;
21202;SDS011;10759;51.982;9.232;2024-03-08T13:35:41;27.90;;;25.00;;
21202;SDS011;10759;51.982;9.232;2024-03-08T13:38:09;33.30;;;26.25;;
21202;SDS011;10759;51.982;9.232;2024-03-08T13:40:41;31.02;;;27.80;;
21202;SDS011;10759;51.982;9.232;2024-03-08T13:43:09;31.67;;;26.55;;
21202;SDS011;10759;51.982;9.232;2024-03-08T13:45:37;29.45;;;26.55;;
21202;SDS011;10759;51.982;9.232;2024-03-08T13:48:07;27.95;;;24.95;;
21202;SDS011;10759;51.982;9.232;2024-03-08T13:50:39;28.27;;;25.45;;
21202;SDS011;10759;51.982;9.232;2024-03-08T13:53:07;29.27;;;26.13;;
21202;SDS011;10759;51.982;9.232;2024-03-08T13:55:36;28.55;;;25.50;;
21202;SDS011;10759;51.982;9.232;2024-03-08T13:58:06;28.55;;;24.65;;
21202;SDS011;10759;51.982;9.232;2024-03-08T14:00:36;29.02;;;24.50;;
21202;SDS011;10759;51.982;9.232;2024-03-08T14:03:04;30.88;;;27.63;;
21202;SDS011;10759;51.982;9.232;2024-03-08T14:05:32;24.95;;;22.45;;
21202;SDS011;10759;51.982;9.232;2024-03-08T14:08:01;24.25;;;21.23;;
21202;SDS011;10759;51.982;9.232;2024-03-08T14:10:31;31.42;;;27.75;;
21202;SDS011;10759;51.982;9.232;2024-03-08T14:12:59;26.67;;;23.90;;
21202;SDS011;10759;51.982;9.232;2024-03-08T14:15:30;26.30;;;23.65;;
21202;SDS011;10759;51.982;9.232;2024-03-08T14:17:58;30.17;;;27.03;;
21202;SDS011;10759;51.982;9.232;2024-03-08T14:20:26;32.13;;;28.75;;
21202;SDS011;10759;51.982;9.232;2024-03-08T14:22:55;31.75;;;28.35;;
21202;SDS011;10759;51.982;9.232;2024-03-08T14:25:23;33.78;;;29.50;;
21202;SDS011;10759;51.982;9.232;2024-03-08T14:27:53;30.63;;;27.35;;
21202;SDS011;10759;51.982;9.232;2024-03-08T14:30:25;27.95;;;25.02;;
21202;SDS011;10759;51.982;9.232;2024-03-08T14:33:03;25.00;;;22.50;;
21202;SDS011;10759;51.982;9.232;2024-03-08T14:35:35;23.70;;;21.17;;
21202;SDS011;10759;51.982;9.232;2024-03-08T14:38:04;25.13;;;21.52;;
21202;SDS011;10759;51.982;9.232;2024-03-08T14:40:35;23.80;;;21.33;;
21202;SDS011;10759;51.982;9.232;2024-03-08T14:43:03;26.60;;;21.38;;
21202;SDS011;10759;51.982;9.232;2024-03-08T14:45:32;25.05;;;21.38;;